createdAt,value
2022-07-29T00:00:01.150Z,99231.88
2022-07-29T00:02:28.822Z,99237.97
2022-07-29T00:04:55.739Z,99231.03
2022-07-29T00:07:22.659Z,99229.53
2022-07-29T00:09:51.309Z,99227.56
2022-07-29T00:12:26.318Z,99231.75
2022-07-29T00:14:57.748Z,99236.69
2022-07-29T00:17:25.737Z,99238.19
2022-07-29T00:19:53.009Z,99234.31
2022-07-29T00:22:21.118Z,99232.78
2022-07-29T00:24:51.167Z,99229.72
2022-07-29T00:27:19.119Z,99237.00
2022-07-29T00:29:46.502Z,99231.22
2022-07-29T00:32:13.338Z,99229.25
2022-07-29T00:34:40.308Z,99224.66
2022-07-29T00:37:07.878Z,99220.81
2022-07-29T00:39:35.022Z,99220.41
2022-07-29T00:42:05.117Z,99219.59
2022-07-29T00:44:31.991Z,99215.75
2022-07-29T00:46:58.864Z,99220.72
2022-07-29T00:49:25.837Z,99220.66
2022-07-29T00:51:52.672Z,99224.44
2022-07-29T00:54:19.699Z,99222.09
2022-07-29T00:56:46.640Z,99219.25
2022-07-29T00:59:13.484Z,99215.91
2022-07-29T01:01:40.402Z,99219.34
2022-07-29T01:04:08.242Z,99223.91
2022-07-29T01:06:35.749Z,99220.44
2022-07-29T01:09:02.972Z,99221.50
2022-07-29T01:11:29.944Z,99215.38
2022-07-29T01:13:57.984Z,99215.78
2022-07-29T01:16:34.288Z,99216.56
2022-07-29T01:19:26.972Z,99213.06
2022-07-29T01:22:01.520Z,99211.50
2022-07-29T01:24:34.925Z,99211.84
2022-07-29T01:27:48.214Z,99214.88
2022-07-29T01:30:16.010Z,99222.88
2022-07-29T01:32:48.677Z,99214.06
2022-07-29T01:35:22.833Z,99213.69
2022-07-29T01:38:09.417Z,99217.88
2022-07-29T01:40:47.710Z,99215.59
2022-07-29T01:43:18.727Z,99215.19
2022-07-29T01:45:57.374Z,99216.69
2022-07-29T01:48:32.285Z,99222.44
2022-07-29T01:51:20.706Z,99218.59
2022-07-29T01:53:55.207Z,99227.28
2022-07-29T01:56:25.268Z,99222.63
2022-07-29T01:58:54.379Z,99225.31
2022-07-29T02:01:25.258Z,99228.31
2022-07-29T02:03:54.511Z,99225.25
2022-07-29T02:06:23.629Z,99227.16
2022-07-29T02:08:53.761Z,99220.22
2022-07-29T02:11:20.827Z,99221.22
2022-07-29T02:13:50.490Z,99217.75
2022-07-29T02:16:20.197Z,99224.63
2022-07-29T02:18:50.870Z,99228.06
2022-07-29T02:21:24.129Z,99226.06
2022-07-29T02:23:53.550Z,99223.34
2022-07-29T02:26:24.323Z,99225.66
2022-07-29T02:28:55.041Z,99223.00
2022-07-29T02:31:26.645Z,99225.53
2022-07-29T02:33:55.784Z,99220.25
2022-07-29T02:36:24.635Z,99216.47
2022-07-29T02:38:52.484Z,99222.16
2022-07-29T02:41:30.602Z,99227.06
2022-07-29T02:44:04.812Z,99220.53
2022-07-29T02:46:37.765Z,99218.91
2022-07-29T02:49:16.497Z,99214.66
2022-07-29T02:52:09.551Z,99211.22
2022-07-29T02:54:42.203Z,99216.91
2022-07-29T02:57:24.090Z,99207.38
2022-07-29T02:59:53.997Z,99211.50
2022-07-29T03:02:22.734Z,99208.69
2022-07-29T03:04:51.827Z,99210.25
2022-07-29T03:07:21.419Z,99216.69
2022-07-29T03:09:49.056Z,99216.25
2022-07-29T03:12:17.298Z,99212.44
2022-07-29T03:14:45.407Z,99207.38
2022-07-29T03:17:12.708Z,99216.19
2022-07-29T03:19:40.758Z,99211.91
2022-07-29T03:22:07.839Z,99211.16
2022-07-29T03:24:36.827Z,99209.94
2022-07-29T03:27:05.533Z,99209.56
2022-07-29T03:29:34.513Z,99212.28
2022-07-29T03:32:08.027Z,99209.88
2022-07-29T03:34:37.116Z,99214.06
2022-07-29T03:37:04.160Z,99209.81
2022-07-29T03:39:36.258Z,99205.63
2022-07-29T03:42:05.732Z,99205.69
2022-07-29T03:44:33.700Z,99207.53
2022-07-29T03:47:02.491Z,99208.97
2022-07-29T03:49:30.678Z,99208.56
2022-07-29T03:51:57.854Z,99216.19
2022-07-29T03:54:24.733Z,99214.19
2022-07-29T03:56:53.851Z,99219.94
2022-07-29T03:59:22.175Z,99216.91
2022-07-29T04:01:50.148Z,99213.19
2022-07-29T04:04:18.052Z,99222.72
2022-07-29T04:06:48.360Z,99214.66
2022-07-29T04:09:15.746Z,99226.09
2022-07-29T04:12:03.565Z,99221.34
2022-07-29T04:14:31.791Z,99217.50
2022-07-29T04:16:58.635Z,99219.81
2022-07-29T04:19:25.740Z,99215.97
2022-07-29T04:21:52.596Z,99221.78
2022-07-29T04:24:19.722Z,99224.91
2022-07-29T04:26:48.194Z,99228.38
2022-07-29T04:29:14.925Z,99224.56
2022-07-29T04:31:42.699Z,99227.63
2022-07-29T04:34:09.741Z,99237.47
2022-07-29T04:36:36.516Z,99230.81
2022-07-29T04:39:04.273Z,99229.78
2022-07-29T04:41:32.995Z,99224.50
2022-07-29T04:44:00.907Z,99230.44
2022-07-29T04:46:28.448Z,99235.63
2022-07-29T04:48:55.371Z,99238.81
2022-07-29T04:51:22.220Z,99237.41
2022-07-29T04:53:49.071Z,99239.81
2022-07-29T04:56:15.857Z,99236.06
2022-07-29T04:58:42.682Z,99243.63
2022-07-29T05:01:09.466Z,99243.94
2022-07-29T05:03:36.328Z,99243.31
2022-07-29T05:06:03.188Z,99249.03
2022-07-29T05:08:30.165Z,99250.72
2022-07-29T05:10:57.110Z,99246.97
2022-07-29T05:13:23.943Z,99248.22
2022-07-29T05:15:50.758Z,99250.56
2022-07-29T05:18:17.572Z,99256.72
2022-07-29T05:20:44.356Z,99251.09
2022-07-29T05:23:11.105Z,99251.97
2022-07-29T05:25:43.160Z,99253.97
2022-07-29T05:28:11.445Z,99249.84
2022-07-29T05:30:38.423Z,99257.19
2022-07-29T05:33:05.220Z,99258.09
2022-07-29T05:35:32.121Z,99262.81
2022-07-29T05:37:58.896Z,99256.03
2022-07-29T05:40:25.654Z,99255.78
2022-07-29T05:42:52.697Z,99262.38
2022-07-29T05:45:19.477Z,99258.59
2022-07-29T05:47:46.289Z,99253.34
2022-07-29T05:50:14.160Z,99266.88
2022-07-29T05:52:41.034Z,99267.00
2022-07-29T05:55:08.297Z,99270.84
2022-07-29T05:57:35.068Z,99271.78
2022-07-29T06:00:02.103Z,99268.81
2022-07-29T06:02:39.128Z,99265.00
2022-07-29T06:05:06.565Z,99269.63
2022-07-29T06:07:38.671Z,99270.06
2022-07-29T06:10:16.414Z,99271.22
2022-07-29T06:12:43.204Z,99273.53
2022-07-29T06:15:10.554Z,99270.22
2022-07-29T06:17:37.421Z,99276.31
2022-07-29T06:20:27.024Z,99279.38
2022-07-29T06:22:54.132Z,99281.78
2022-07-29T06:25:21.005Z,99281.03
2022-07-29T06:27:47.885Z,99281.06
2022-07-29T06:30:14.849Z,99283.75
2022-07-29T06:32:43.362Z,99274.59
2022-07-29T06:35:38.947Z,99275.44
2022-07-29T06:37:58.021Z,99275.06
2022-07-29T06:40:26.672Z,99271.28
2022-07-29T06:42:53.611Z,99273.25
2022-07-29T06:45:20.515Z,99275.53
2022-07-29T06:47:47.482Z,99284.75
2022-07-29T06:50:14.245Z,99288.63
2022-07-29T06:52:41.375Z,99291.69
2022-07-29T06:55:08.752Z,99287.50
2022-07-29T06:57:35.735Z,99293.25
2022-07-29T07:00:02.658Z,99296.72
2022-07-29T07:02:29.530Z,99293.25
2022-07-29T07:04:56.330Z,99303.25
2022-07-29T07:07:23.212Z,99295.22
2022-07-29T07:09:49.948Z,99302.50
2022-07-29T07:12:16.930Z,99304.84
2022-07-29T07:14:43.689Z,99297.59
2022-07-29T07:17:10.503Z,99300.31
2022-07-29T07:19:37.293Z,99293.81
2022-07-29T07:22:04.092Z,99299.19
2022-07-29T07:24:31.800Z,99303.06
2022-07-29T07:26:58.629Z,99299.25
2022-07-29T07:29:25.411Z,99297.75
2022-07-29T07:31:55.168Z,99291.66
2022-07-29T07:34:29.459Z,99306.94
2022-07-29T07:36:56.727Z,99307.34
2022-07-29T07:39:23.514Z,99298.19
2022-07-29T07:41:50.547Z,99304.38
2022-07-29T07:44:17.749Z,99295.97
2022-07-29T07:46:44.795Z,99303.69
2022-07-29T07:49:12.475Z,99304.56
2022-07-29T07:51:39.387Z,99301.13
2022-07-29T07:54:06.188Z,99308.03
2022-07-29T07:56:35.392Z,99297.72
2022-07-29T07:59:02.287Z,99311.94
2022-07-29T08:01:29.202Z,99310.84
2022-07-29T08:04:15.329Z,99308.50
2022-07-29T08:06:42.816Z,99307.78
2022-07-29T08:09:28.139Z,99305.09
2022-07-29T08:11:56.529Z,99314.72
2022-07-29T08:14:23.290Z,99313.91
2022-07-29T08:16:50.181Z,99307.00
2022-07-29T08:19:17.207Z,99310.09
2022-07-29T08:21:44.091Z,99313.53
2022-07-29T08:24:10.852Z,99318.91
2022-07-29T08:26:37.568Z,99316.97
2022-07-29T08:29:04.395Z,99309.31
2022-07-29T08:31:31.269Z,99304.72
2022-07-29T08:33:58.094Z,99301.97
2022-07-29T08:36:25.616Z,99311.94
2022-07-29T08:38:52.399Z,99311.88
2022-07-29T08:41:20.840Z,99303.03
2022-07-29T08:43:48.657Z,99304.13
2022-07-29T08:46:15.568Z,99311.06
2022-07-29T08:48:42.741Z,99304.50
2022-07-29T08:51:10.526Z,99305.13
2022-07-29T08:53:37.581Z,99304.06
2022-07-29T08:56:04.651Z,99307.88
2022-07-29T08:58:36.876Z,99303.63
2022-07-29T09:01:06.896Z,99300.91
2022-07-29T09:03:37.433Z,99310.97
2022-07-29T09:06:05.111Z,99302.19
2022-07-29T09:08:33.643Z,99300.63
2022-07-29T09:11:04.097Z,99302.09
2022-07-29T09:13:32.184Z,99293.72
2022-07-29T09:15:59.007Z,99295.19
2022-07-29T09:18:35.887Z,99295.59
2022-07-29T09:21:04.329Z,99294.38
2022-07-29T09:23:31.091Z,99299.38
2022-07-29T09:26:06.811Z,99300.84
2022-07-29T09:28:33.768Z,99295.88
2022-07-29T09:31:00.570Z,99299.75
2022-07-29T09:33:36.161Z,99296.63
2022-07-29T09:36:07.608Z,99302.38
2022-07-29T09:38:35.672Z,99299.66
2022-07-29T09:41:06.489Z,99295.50
2022-07-29T09:43:34.363Z,99305.84
2022-07-29T09:46:19.196Z,99294.66
2022-07-29T09:48:46.037Z,99297.72
2022-07-29T09:51:24.179Z,99289.59
2022-07-29T09:53:53.856Z,99282.16
2022-07-29T09:56:20.647Z,99280.91
2022-07-29T09:58:47.435Z,99273.75
2022-07-29T10:01:14.322Z,99278.31
2022-07-29T10:03:54.177Z,99282.53
2022-07-29T10:06:21.124Z,99270.84
2022-07-29T10:08:48.529Z,99278.16
2022-07-29T10:11:18.196Z,99276.09
2022-07-29T10:13:47.195Z,99278.03
2022-07-29T10:16:15.313Z,99271.81
2022-07-29T10:18:44.451Z,99266.09
2022-07-29T10:21:22.606Z,99270.44
2022-07-29T10:24:01.310Z,99271.81
2022-07-29T10:26:30.558Z,99270.53
2022-07-29T10:28:57.321Z,99267.09
2022-07-29T10:31:37.659Z,99267.41
2022-07-29T10:34:33.922Z,99254.72
2022-07-29T10:37:14.115Z,99260.34
2022-07-29T10:40:28.623Z,99251.66
2022-07-29T10:43:01.682Z,99253.53
2022-07-29T10:45:30.796Z,99255.44
2022-07-29T10:48:05.794Z,99247.75
2022-07-29T10:51:06.866Z,99248.16
2022-07-29T10:53:51.535Z,99243.13
2022-07-29T10:56:29.708Z,99232.63
2022-07-29T10:59:22.743Z,99236.03
2022-07-29T11:01:54.400Z,99223.25
2022-07-29T11:04:44.579Z,99226.75
2022-07-29T11:07:12.011Z,99219.03
2022-07-29T11:09:38.873Z,99227.03
2022-07-29T11:12:39.252Z,99228.75
2022-07-29T11:15:08.419Z,99222.19
2022-07-29T11:17:53.547Z,99220.75
2022-07-29T11:20:41.552Z,99216.53
2022-07-29T11:23:33.362Z,99211.50
2022-07-29T11:26:12.809Z,99211.03
2022-07-29T11:29:18.081Z,99213.66
2022-07-29T11:31:47.791Z,99210.19
2022-07-29T11:34:27.801Z,99203.75
2022-07-29T11:37:08.300Z,99201.16
2022-07-29T11:39:40.053Z,99199.53
2022-07-29T11:42:32.323Z,99195.53
2022-07-29T11:45:41.751Z,99195.41
2022-07-29T11:48:28.002Z,99196.59
2022-07-29T11:50:48.849Z,99191.56
2022-07-29T11:53:16.466Z,99188.84
2022-07-29T11:55:51.095Z,99186.47
2022-07-29T11:58:24.840Z,99178.38
2022-07-29T12:00:53.198Z,99176.38
2022-07-29T12:03:33.545Z,99169.50
2022-07-29T12:09:11.204Z,99167.78
2022-07-29T12:11:41.619Z,99166.31
2022-07-29T12:14:34.485Z,99166.47
2022-07-29T12:17:01.541Z,99160.63
2022-07-29T12:19:28.413Z,99158.75
2022-07-29T12:21:59.775Z,99163.00
2022-07-29T12:24:44.976Z,99160.16
2022-07-29T12:27:12.956Z,99167.94
2022-07-29T12:29:41.989Z,99167.22
2022-07-29T12:32:19.409Z,99166.06
2022-07-29T12:34:47.312Z,99167.44
2022-07-29T12:37:14.410Z,99165.84
2022-07-29T12:39:41.366Z,99150.53
2022-07-29T12:42:18.445Z,99156.06
2022-07-29T12:44:51.222Z,99152.34
2022-07-29T12:47:20.286Z,99138.53
2022-07-29T12:49:47.514Z,99147.81
2022-07-29T12:52:29.824Z,99152.03
2022-07-29T12:54:57.159Z,99149.28
2022-07-29T12:57:24.366Z,99155.94
2022-07-29T13:00:06.009Z,99152.47
2022-07-29T13:02:33.018Z,99147.97
2022-07-29T13:05:00.966Z,99156.91
2022-07-29T13:07:55.674Z,99151.16
2022-07-29T13:10:24.423Z,99162.09
2022-07-29T13:13:12.271Z,99164.34
2022-07-29T13:16:08.461Z,99162.56
2022-07-29T13:18:36.606Z,99168.47
2022-07-29T13:21:15.203Z,99177.47
2022-07-29T13:23:43.007Z,99169.56
2022-07-29T13:26:11.973Z,99174.03
2022-07-29T13:28:39.322Z,99176.31
2022-07-29T13:31:06.311Z,99186.09
2022-07-29T13:33:33.287Z,99192.47
2022-07-29T13:36:00.076Z,99196.00
2022-07-29T13:38:30.992Z,99195.78
2022-07-29T13:40:58.893Z,99196.31
2022-07-29T13:43:25.692Z,99205.78
2022-07-29T13:45:52.553Z,99203.59
2022-07-29T13:48:19.528Z,99208.31
2022-07-29T13:50:46.335Z,99216.53
2022-07-29T13:53:17.757Z,99225.84
2022-07-29T13:55:45.379Z,99225.97
2022-07-29T13:58:12.153Z,99232.16
2022-07-29T14:00:39.010Z,99241.06
2022-07-29T14:03:05.728Z,99250.19
2022-07-29T14:05:32.589Z,99256.31
2022-07-29T14:07:59.334Z,99255.44
2022-07-29T14:10:27.480Z,99250.84
2022-07-29T14:12:54.321Z,99241.91
2022-07-29T14:15:21.129Z,99242.31
2022-07-29T14:17:47.934Z,99249.94
2022-07-29T14:20:14.674Z,99254.16
2022-07-29T14:22:42.606Z,99246.03
2022-07-29T14:25:14.379Z,99244.44
2022-07-29T14:27:42.950Z,99251.69
2022-07-29T14:30:10.466Z,99246.25
2022-07-29T14:32:37.403Z,99240.72
2022-07-29T14:35:05.414Z,99226.00
2022-07-29T14:37:39.934Z,99222.53
2022-07-29T14:40:11.926Z,99204.88
2022-07-29T14:42:41.197Z,99196.38
2022-07-29T14:45:10.385Z,99192.88
2022-07-29T14:47:38.137Z,99194.00
2022-07-29T14:50:05.713Z,99203.50
2022-07-29T14:52:32.947Z,99211.59
2022-07-29T14:54:59.837Z,99203.28
2022-07-29T14:57:26.597Z,99197.56
2022-07-29T14:59:53.459Z,99187.28
2022-07-29T15:02:20.254Z,99180.09
2022-07-29T15:04:47.239Z,99174.44
2022-07-29T15:07:14.004Z,99167.59
2022-07-29T15:09:49.996Z,99164.59
2022-07-29T15:12:17.033Z,99157.75
2022-07-29T15:14:44.023Z,99158.22
2022-07-29T15:17:10.886Z,99154.81
2022-07-29T15:19:37.874Z,99151.00
2022-07-29T15:22:05.294Z,99155.25
2022-07-29T15:24:32.534Z,99155.66
2022-07-29T15:26:59.562Z,99151.84
2022-07-29T15:29:26.463Z,99146.50
2022-07-29T15:31:53.253Z,99149.63
2022-07-29T15:34:20.075Z,99148.09
2022-07-29T15:36:52.374Z,99149.69
2022-07-29T15:39:20.328Z,99150.03
2022-07-29T15:41:47.088Z,99139.72
2022-07-29T15:44:13.948Z,99136.25
2022-07-29T15:46:41.088Z,99138.13
2022-07-29T15:49:08.574Z,99140.38
2022-07-29T15:51:35.696Z,99138.06
2022-07-29T15:54:03.910Z,99123.91
2022-07-29T15:56:31.667Z,99119.72
2022-07-29T15:58:58.600Z,99123.16
2022-07-29T16:01:25.858Z,99117.44
2022-07-29T16:03:53.254Z,99118.97
2022-07-29T16:06:20.270Z,99115.16
2022-07-29T16:08:47.191Z,99117.84
2022-07-29T16:11:13.994Z,99119.38
2022-07-29T16:13:40.790Z,99116.34
2022-07-29T16:16:08.960Z,99116.72
2022-07-29T16:18:35.879Z,99115.19
2022-07-29T16:21:02.748Z,99112.53
2022-07-29T16:23:29.624Z,99112.53
2022-07-29T16:26:00.133Z,99113.28
2022-07-29T16:28:28.705Z,99113.69
2022-07-29T16:30:55.574Z,99109.88
2022-07-29T16:33:22.563Z,99101.50
2022-07-29T16:35:51.016Z,99098.06
2022-07-29T16:38:17.809Z,99109.53
2022-07-29T16:40:44.745Z,99116.84
2022-07-29T16:43:11.468Z,99113.75
2022-07-29T16:45:45.352Z,99116.03
2022-07-29T16:48:14.151Z,99106.88
2022-07-29T16:50:41.387Z,99105.69
2022-07-29T16:53:10.677Z,99101.47
2022-07-29T16:55:37.775Z,99101.84
2022-07-29T16:58:04.901Z,99101.50
2022-07-29T17:00:31.802Z,99104.50
2022-07-29T17:02:59.468Z,99112.22
2022-07-29T17:05:28.534Z,99109.53
2022-07-29T17:07:55.602Z,99111.44
2022-07-29T17:10:22.455Z,99114.50
2022-07-29T17:12:49.644Z,99116.41
2022-07-29T17:15:17.374Z,99107.19
2022-07-29T17:17:55.243Z,99099.16
2022-07-29T17:20:25.224Z,99109.53
2022-07-29T17:22:52.125Z,99106.84
2022-07-29T17:25:20.548Z,99106.06
2022-07-29T17:27:50.739Z,99097.63
2022-07-29T17:30:18.107Z,99100.72
2022-07-29T17:32:45.160Z,99096.47
2022-07-29T17:35:12.725Z,99108.38
2022-07-29T17:37:40.351Z,99109.91
2022-07-29T17:40:07.990Z,99111.81
2022-07-29T17:42:34.804Z,99121.03
2022-07-29T17:45:01.733Z,99112.56
2022-07-29T17:47:28.546Z,99122.19
2022-07-29T17:49:55.513Z,99138.66
2022-07-29T17:52:22.264Z,99117.59
2022-07-29T17:54:49.063Z,99112.59
2022-07-29T17:57:16.107Z,99105.69
2022-07-29T17:59:43.077Z,99112.97
2022-07-29T18:02:10.023Z,99114.13
2022-07-29T18:04:37.568Z,99110.66
2022-07-29T18:07:04.958Z,99112.59
2022-07-29T18:09:31.758Z,99115.28
2022-07-29T18:11:58.500Z,99118.34
2022-07-29T18:14:25.406Z,99124.88
2022-07-29T18:16:52.259Z,99122.19
2022-07-29T18:19:19.075Z,99122.56
2022-07-29T18:21:54.569Z,99120.63
2022-07-29T18:24:25.597Z,99131.38
2022-07-29T18:26:53.723Z,99122.56
2022-07-29T18:29:21.164Z,99131.00
2022-07-29T18:31:47.988Z,99126.00
2022-07-29T18:34:14.945Z,99125.25
2022-07-29T18:36:41.684Z,99126.78
2022-07-29T18:39:08.524Z,99126.78
2022-07-29T18:41:35.744Z,99130.59
2022-07-29T18:44:21.909Z,99130.59
2022-07-29T18:46:51.924Z,99129.06
2022-07-29T18:49:19.503Z,99133.66
2022-07-29T18:51:46.397Z,99126.00
2022-07-29T18:54:13.224Z,99131.75
2022-07-29T18:56:39.987Z,99128.31
2022-07-29T18:59:06.908Z,99133.66
2022-07-29T19:01:33.701Z,99132.91
2022-07-29T19:04:01.065Z,99133.66
2022-07-29T19:06:27.888Z,99132.09
2022-07-29T19:08:54.744Z,99123.66
2022-07-29T19:11:21.817Z,99131.69
2022-07-29T19:13:49.645Z,99138.97
2022-07-29T19:16:16.805Z,99144.31
2022-07-29T19:18:43.631Z,99145.06
2022-07-29T19:21:11.153Z,99138.53
2022-07-29T19:24:06.009Z,99137.38
2022-07-29T19:26:26.277Z,99135.84
2022-07-29T19:28:53.302Z,99138.91
2022-07-29T19:31:20.279Z,99136.22
2022-07-29T19:33:47.142Z,99143.44
2022-07-29T19:36:14.024Z,99159.44
2022-07-29T19:38:40.974Z,99161.72
2022-07-29T19:41:07.791Z,99160.53
2022-07-29T19:43:50.965Z,99173.13
2022-07-29T19:46:23.215Z,99168.44
2022-07-29T19:48:50.458Z,99169.59
2022-07-29T19:51:17.405Z,99174.88
2022-07-29T19:53:44.236Z,99172.06
2022-07-29T19:56:10.985Z,99170.13
2022-07-29T19:58:37.856Z,99178.47
2022-07-29T20:01:10.284Z,99172.69
2022-07-29T20:03:40.640Z,99184.88
2022-07-29T20:06:07.645Z,99182.50
2022-07-29T20:08:34.738Z,99183.22
2022-07-29T20:11:01.968Z,99183.63
2022-07-29T20:13:28.866Z,99187.44
2022-07-29T20:15:55.660Z,99184.63
2022-07-29T20:18:22.468Z,99175.41
2022-07-29T20:20:49.310Z,99184.88
2022-07-29T20:23:16.220Z,99193.63
2022-07-29T20:25:43.118Z,99188.72
2022-07-29T20:28:09.939Z,99202.06
2022-07-29T20:30:38.528Z,99199.09
2022-07-29T20:33:05.933Z,99205.34
2022-07-29T20:35:32.880Z,99200.09
2022-07-29T20:37:59.742Z,99195.50
2022-07-29T20:40:27.991Z,99184.69
2022-07-29T20:42:55.703Z,99186.78
2022-07-29T20:45:23.656Z,99179.94
2022-07-29T20:47:51.593Z,99183.09
2022-07-29T20:50:19.553Z,99182.78
2022-07-29T20:52:46.316Z,99184.84
2022-07-29T20:55:13.058Z,99185.09
2022-07-29T20:57:40.181Z,99189.25
2022-07-29T21:00:07.618Z,99178.13
2022-07-29T21:02:34.508Z,99182.03
2022-07-29T21:05:01.398Z,99183.56
2022-07-29T21:07:28.189Z,99180.47
2022-07-29T21:09:55.035Z,99180.94
2022-07-29T21:12:21.780Z,99172.63
2022-07-29T21:14:48.580Z,99167.72
2022-07-29T21:17:16.607Z,99173.81
2022-07-29T21:19:43.389Z,99158.97
2022-07-29T21:22:10.420Z,99162.44
2022-07-29T21:24:37.211Z,99163.22
2022-07-29T21:27:19.833Z,99157.13
2022-07-29T21:29:47.791Z,99155.53
2022-07-29T21:32:14.729Z,99153.19
2022-07-29T21:34:56.244Z,99155.91
2022-07-29T21:37:23.061Z,99151.25
2022-07-29T21:39:49.894Z,99150.03
2022-07-29T21:42:16.692Z,99150.03
2022-07-29T21:44:43.568Z,99150.06
2022-07-29T21:47:11.414Z,99149.34
2022-07-29T21:49:39.134Z,99145.06
2022-07-29T21:52:08.064Z,99149.66
2022-07-29T21:54:35.748Z,99137.06
2022-07-29T21:57:03.451Z,99135.53
2022-07-29T21:59:30.698Z,99137.47
2022-07-29T22:01:57.878Z,99135.91
2022-07-29T22:04:24.797Z,99140.94
2022-07-29T22:06:51.700Z,99142.13
2022-07-29T22:09:18.428Z,99143.66
2022-07-29T22:11:45.391Z,99150.16
2022-07-29T22:14:12.119Z,99147.09
2022-07-29T22:16:38.953Z,99140.19
2022-07-29T22:19:05.840Z,99146.28
2022-07-29T22:21:32.746Z,99154.63
2022-07-29T22:24:01.633Z,99139.69
2022-07-29T22:26:28.509Z,99149.13
2022-07-29T22:28:55.342Z,99147.69
2022-07-29T22:31:22.244Z,99144.50
2022-07-29T22:33:53.209Z,99141.44
2022-07-29T22:36:20.090Z,99137.28
2022-07-29T22:38:51.535Z,99147.72
2022-07-29T22:41:18.913Z,99138.97
2022-07-29T22:43:45.689Z,99143.25
2022-07-29T22:46:12.572Z,99150.50
2022-07-29T22:48:39.430Z,99137.56
2022-07-29T22:51:07.043Z,99145.63
2022-07-29T22:53:33.946Z,99141.44
2022-07-29T22:56:00.895Z,99138.75
2022-07-29T22:58:27.685Z,99145.19
2022-07-29T23:00:54.689Z,99136.41
2022-07-29T23:03:21.946Z,99135.66
2022-07-29T23:05:48.954Z,99147.06
2022-07-29T23:08:15.791Z,99136.72
2022-07-29T23:10:42.688Z,99140.59
2022-07-29T23:13:09.563Z,99137.22
2022-07-29T23:15:36.489Z,99137.06
2022-07-29T23:18:03.368Z,99138.47
2022-07-29T23:20:30.174Z,99152.88
2022-07-29T23:22:56.937Z,99165.69
2022-07-29T23:25:23.756Z,99183.50
2022-07-29T23:27:50.638Z,99199.19
2022-07-29T23:30:17.551Z,99197.28
2022-07-29T23:32:44.339Z,99191.00
2022-07-29T23:35:11.303Z,99183.41
2022-07-29T23:37:38.222Z,99192.56
2022-07-29T23:40:08.675Z,99189.97
2022-07-29T23:42:37.819Z,99196.91
2022-07-29T23:45:05.941Z,99203.00
2022-07-29T23:47:32.699Z,99200.69
2022-07-29T23:49:59.600Z,99205.25
2022-07-29T23:52:26.831Z,99205.31
2022-07-29T23:54:54.886Z,99198.00
2022-07-29T23:57:41.689Z,99190.38
